Time,TemperatureF,DewpointF,PressureIn,WindDirection,WindDirectionDegrees,WindSpeedMPH,WindSpeedGustMPH,Humidity,HourlyPrecipIn,Conditions,Clouds,dailyrainin,SoftwareType,DateUTC
2013-01-27 00:14:00,37.9,26.0,29.84,South,182,8.0,11.0,62,0.00,,,0.00,weatherlink.com 1.10,2013-01-27 06:14:00,
2013-01-27 00:29:00,38.1,26.0,29.84,SW,229,2.0,13.0,62,0.00,,,0.00,weatherlink.com 1.10,2013-01-27 06:29:00,
2013-01-27 00:44:00,38.2,26.0,29.82,South,182,2.0,10.0,61,0.00,,,0.00,weatherlink.com 1.10,2013-01-27 06:44:00,
2013-01-27 00:59:00,38.3,26.0,29.82,SW,216,4.0,10.0,61,0.00,,,0.00,weatherlink.com 1.10,2013-01-27 06:59:00,
2013-01-27 01:14:00,38.5,26.0,29.81,SE,142,2.0,14.0,60,0.00,,,0.00,weatherlink.com 1.10,2013-01-27 07:14:00,
2013-01-27 01:30:00,38.7,26.0,29.81,SSW,206,1.0,10.0,60,0.00,,,0.00,weatherlink.com 1.10,2013-01-27 07:30:00,
2013-01-27 01:45:00,38.8,26.0,29.80,South,186,0.0,11.0,60,0.00,,,0.00,weatherlink.com 1.10,2013-01-27 07:45:00,
2013-01-27 02:00:00,39.0,26.0,29.81,SSE,149,0.0,7.0,60,0.00,,,0.00,weatherlink.com 1.10,2013-01-27 08:00:00,
2013-01-27 02:14:00,39.1,26.0,29.81,SSE,159,2.0,10.0,60,0.00,,,0.00,weatherlink.com 1.10,2013-01-27 08:14:00,
2013-01-27 02:29:00,39.0,27.0,29.82,SE,126,4.0,8.0,62,0.00,,,0.00,weatherlink.com 1.10,2013-01-27 08:29:00,
2013-01-27 02:44:00,38.8,27.0,29.81,SW,224,1.0,10.0,64,0.00,,,0.00,weatherlink.com 1.10,2013-01-27 08:44:00,
2013-01-27 02:59:00,38.0,29.0,29.80,SSW,211,6.0,12.0,71,0.00,,,0.00,weatherlink.com 1.10,2013-01-27 08:59:00,
2013-01-27 03:15:00,37.1,31.0,29.79,SSW,211,2.0,15.0,77,0.00,,,0.00,weatherlink.com 1.10,2013-01-27 09:15:00,
2013-01-27 03:30:00,36.0,32.0,29.79,South,190,1.0,9.0,85,0.01,,,0.01,weatherlink.com 1.10,2013-01-27 09:30:00,
2013-01-27 03:45:00,35.7,33.0,29.78,SSE,150,5.0,8.0,88,0.02,,,0.02,weatherlink.com 1.10,2013-01-27 09:45:00,
2013-01-27 04:00:00,35.4,33.0,29.77,SSE,163,1.0,12.0,90,0.02,,,0.02,weatherlink.com 1.10,2013-01-27 10:00:00,
2013-01-27 04:15:00,35.1,33.0,29.76,South,181,1.0,9.0,92,0.03,,,0.03,weatherlink.com 1.10,2013-01-27 10:15:00,
2013-01-27 04:30:00,35.1,33.0,29.75,SSE,165,0.0,8.0,92,0.03,,,0.04,weatherlink.com 1.10,2013-01-27 10:30:00,
2013-01-27 04:45:00,35.0,33.0,29.75,SW,235,7.0,12.0,93,0.05,,,0.07,weatherlink.com 1.10,2013-01-27 10:45:00,
2013-01-27 05:00:00,35.2,34.0,29.74,SW,222,4.0,10.0,94,0.06,,,0.08,weatherlink.com 1.10,2013-01-27 11:00:00,
2013-01-27 05:15:00,35.4,34.0,29.73,South,175,0.0,10.0,95,0.06,,,0.09,weatherlink.com 1.10,2013-01-27 11:15:00,
2013-01-27 05:29:00,35.7,34.0,29.71,SSE,155,8.0,8.0,95,0.06,,,0.10,weatherlink.com 1.10,2013-01-27 11:29:00,
2013-01-27 05:45:00,36.0,35.0,29.72,SSE,153,3.0,9.0,95,0.03,,,0.10,weatherlink.com 1.10,2013-01-27 11:45:00,
2013-01-27 05:59:00,35.9,35.0,29.72,SE,129,0.0,7.0,95,0.02,,,0.10,weatherlink.com 1.10,2013-01-27 11:59:00,
2013-01-27 06:14:00,35.6,34.0,29.71,SSE,150,3.0,8.0,95,0.01,,,0.10,weatherlink.com 1.10,2013-01-27 12:14:00,
2013-01-27 06:30:00,35.6,34.0,29.71,SSE,153,4.0,8.0,95,0.00,,,0.10,weatherlink.com 1.10,2013-01-27 12:30:00,
2013-01-27 06:45:00,35.5,34.0,29.70,SSE,150,3.0,6.0,95,0.00,,,0.10,weatherlink.com 1.10,2013-01-27 12:45:00,
2013-01-27 07:01:00,35.6,34.0,29.70,SSE,168,0.0,9.0,95,0.00,,,0.10,weatherlink.com 1.10,2013-01-27 13:01:00,
2013-01-27 07:14:00,35.6,34.0,29.69,South,171,1.0,10.0,95,0.00,,,0.10,weatherlink.com 1.10,2013-01-27 13:14:00,
2013-01-27 07:30:00,35.7,34.0,29.68,SE,144,2.0,9.0,94,0.00,,,0.10,weatherlink.com 1.10,2013-01-27 13:30:00,
2013-01-27 07:45:00,35.9,34.0,29.68,South,171,8.0,11.0,94,0.00,,,0.10,weatherlink.com 1.10,2013-01-27 13:45:00,
2013-01-27 08:00:00,36.0,35.0,29.69,SE,142,5.0,9.0,94,0.00,,,0.10,weatherlink.com 1.10,2013-01-27 14:00:00,
2013-01-27 08:14:00,36.0,35.0,29.67,South,175,2.0,7.0,94,0.00,,,0.10,weatherlink.com 1.10,2013-01-27 14:14:00,
2013-01-27 08:30:00,36.0,35.0,29.67,SSW,192,4.0,9.0,94,0.00,,,0.10,weatherlink.com 1.10,2013-01-27 14:30:00,
2013-01-27 08:45:00,36.1,35.0,29.67,South,177,2.0,9.0,94,0.00,,,0.10,weatherlink.com 1.10,2013-01-27 14:45:00,
2013-01-27 09:01:00,36.4,35.0,29.66,SSE,166,1.0,10.0,94,0.00,,,0.10,weatherlink.com 1.10,2013-01-27 15:01:00,
2013-01-27 09:15:00,36.6,35.0,29.65,South,191,5.0,11.0,94,0.00,,,0.10,weatherlink.com 1.10,2013-01-27 15:15:00,
2013-01-27 09:30:00,36.7,35.0,29.65,SSW,211,2.0,15.0,94,0.00,,,0.10,weatherlink.com 1.10,2013-01-27 15:30:00,
2013-01-27 09:45:00,36.7,35.0,29.64,WSW,244,4.0,7.0,94,0.00,,,0.10,weatherlink.com 1.10,2013-01-27 15:45:00,
2013-01-27 10:00:00,36.8,35.0,29.64,SW,222,1.0,15.0,94,0.00,,,0.10,weatherlink.com 1.10,2013-01-27 16:00:00,
2013-01-27 10:16:00,36.9,36.0,29.64,SW,221,2.0,9.0,95,0.00,,,0.10,weatherlink.com 1.10,2013-01-27 16:16:00,
2013-01-27 10:30:00,37.1,36.0,29.63,SSE,159,3.0,7.0,95,0.00,,,0.10,weatherlink.com 1.10,2013-01-27 16:30:00,
2013-01-27 10:45:00,37.3,36.0,29.62,SSW,200,0.0,9.0,96,0.00,,,0.10,weatherlink.com 1.10,2013-01-27 16:45:00,
2013-01-27 11:00:00,37.5,37.0,29.62,SE,146,4.0,8.0,96,0.00,,,0.10,weatherlink.com 1.10,2013-01-27 17:00:00,
2013-01-27 11:16:00,37.9,37.0,29.62,SSE,165,0.0,7.0,96,0.00,,,0.10,weatherlink.com 1.10,2013-01-27 17:16:00,
2013-01-27 11:31:00,38.3,37.0,29.61,South,180,1.0,5.0,96,0.00,,,0.10,weatherlink.com 1.10,2013-01-27 17:31:00,
2013-01-27 11:46:00,38.6,38.0,29.61,South,173,3.0,8.0,96,0.00,,,0.10,weatherlink.com 1.10,2013-01-27 17:46:00,
2013-01-27 12:00:00,38.7,38.0,29.60,South,182,1.0,10.0,96,0.00,,,0.10,weatherlink.com 1.10,2013-01-27 18:00:00,
2013-01-27 12:30:00,39.0,38.0,29.57,ESE,112,8.0,8.0,96,0.00,,,0.10,weatherlink.com 1.10,2013-01-27 18:30:00,
2013-01-27 12:46:00,39.1,38.0,29.57,South,174,4.0,7.0,96,0.00,,,0.10,weatherlink.com 1.10,2013-01-27 18:46:00,
2013-01-27 13:01:00,39.3,39.0,29.56,SSW,198,3.0,5.0,97,0.01,,,0.11,weatherlink.com 1.10,2013-01-27 19:01:00,
2013-01-27 13:15:00,39.5,39.0,29.55,SW,217,0.0,5.0,97,0.01,,,0.11,weatherlink.com 1.10,2013-01-27 19:15:00,
2013-01-27 13:30:00,39.7,39.0,29.55,SW,220,2.0,7.0,97,0.01,,,0.11,weatherlink.com 1.10,2013-01-27 19:30:00,
2013-01-27 13:46:00,39.8,39.0,29.54,SSE,150,0.0,4.0,97,0.01,,,0.11,weatherlink.com 1.10,2013-01-27 19:46:00,
2013-01-27 14:01:00,40.0,39.0,29.53,SE,131,3.0,6.0,97,0.01,,,0.12,weatherlink.com 1.10,2013-01-27 20:01:00,
2013-01-27 14:16:00,40.2,39.0,29.52,SE,143,0.0,4.0,97,0.01,,,0.12,weatherlink.com 1.10,2013-01-27 20:16:00,
2013-01-27 14:31:00,40.5,40.0,29.52,SSE,164,2.0,5.0,97,0.01,,,0.12,weatherlink.com 1.10,2013-01-27 20:31:00,
2013-01-27 14:45:00,40.7,40.0,29.52,SSE,166,1.0,3.0,97,0.01,,,0.12,weatherlink.com 1.10,2013-01-27 20:45:00,
2013-01-27 15:01:00,40.8,40.0,29.52,South,169,1.0,3.0,97,0.00,,,0.12,weatherlink.com 1.10,2013-01-27 21:01:00,
2013-01-27 15:16:00,40.9,40.0,29.52,SSE,167,0.0,4.0,97,0.00,,,0.12,weatherlink.com 1.10,2013-01-27 21:16:00,
2013-01-27 15:31:00,41.1,40.0,29.52,South,184,1.0,4.0,97,0.01,,,0.13,weatherlink.com 1.10,2013-01-27 21:31:00,
2013-01-27 15:46:00,41.3,41.0,29.52,South,173,0.0,3.0,97,0.01,,,0.13,weatherlink.com 1.10,2013-01-27 21:46:00,
2013-01-27 16:01:00,41.5,41.0,29.52,South,173,0.0,1.0,98,0.01,,,0.13,weatherlink.com 1.10,2013-01-27 22:01:00,
2013-01-27 16:15:00,41.6,41.0,29.52,South,173,0.0,3.0,98,0.01,,,0.13,weatherlink.com 1.10,2013-01-27 22:15:00,
2013-01-27 16:31:00,41.6,41.0,29.52,South,173,0.0,2.0,98,0.00,,,0.13,weatherlink.com 1.10,2013-01-27 22:31:00,
2013-01-27 16:46:00,41.6,41.0,29.53,South,173,0.0,0.0,98,0.00,,,0.13,weatherlink.com 1.10,2013-01-27 22:46:00,
2013-01-27 17:01:00,41.5,41.0,29.53,South,173,0.0,0.0,98,0.01,,,0.14,weatherlink.com 1.10,2013-01-27 23:01:00,
2013-01-27 17:16:00,41.3,41.0,29.53,South,173,0.0,0.0,97,0.01,,,0.14,weatherlink.com 1.10,2013-01-27 23:16:00,
2013-01-27 17:30:00,41.2,40.0,29.53,South,173,0.0,0.0,97,0.01,,,0.14,weatherlink.com 1.10,2013-01-27 23:30:00,
2013-01-27 17:46:00,41.2,40.0,29.54,South,173,0.0,0.0,97,0.01,,,0.14,weatherlink.com 1.10,2013-01-27 23:46:00,
2013-01-27 18:01:00,41.0,40.0,29.55,South,173,0.0,0.0,97,0.00,,,0.14,weatherlink.com 1.10,2013-01-28 00:01:00,
2013-01-27 18:16:00,40.9,40.0,29.55,South,173,0.0,0.0,97,0.00,,,0.14,weatherlink.com 1.10,2013-01-28 00:16:00,
2013-01-27 18:30:00,40.6,40.0,29.56,South,173,0.0,0.0,97,0.00,,,0.14,weatherlink.com 1.10,2013-01-28 00:30:00,
2013-01-27 18:46:00,40.4,40.0,29.56,South,173,0.0,0.0,97,0.00,,,0.14,weatherlink.com 1.10,2013-01-28 00:46:00,
2013-01-27 19:01:00,40.1,39.0,29.56,South,173,0.0,0.0,97,0.00,,,0.14,weatherlink.com 1.10,2013-01-28 01:01:00,
2013-01-27 19:16:00,40.0,39.0,29.57,South,173,0.0,0.0,97,0.00,,,0.14,weatherlink.com 1.10,2013-01-28 01:16:00,
2013-01-27 19:31:00,39.8,39.0,29.57,South,173,0.0,3.0,97,0.00,,,0.14,weatherlink.com 1.10,2013-01-28 01:31:00,
2013-01-27 19:46:00,39.5,39.0,29.58,South,173,0.0,1.0,97,0.00,,,0.14,weatherlink.com 1.10,2013-01-28 01:46:00,
2013-01-27 20:01:00,39.3,39.0,29.58,South,173,0.0,0.0,97,0.00,,,0.14,weatherlink.com 1.10,2013-01-28 02:01:00,
2013-01-27 20:15:00,39.0,38.0,29.58,South,173,0.0,0.0,97,0.00,,,0.14,weatherlink.com 1.10,2013-01-28 02:15:00,
2013-01-27 20:31:00,38.9,38.0,29.59,NW,321,0.0,2.0,97,0.00,,,0.14,weatherlink.com 1.10,2013-01-28 02:31:00,
2013-01-27 20:46:00,38.8,38.0,29.60,NW,321,0.0,1.0,97,0.00,,,0.14,weatherlink.com 1.10,2013-01-28 02:46:00,
2013-01-27 21:01:00,38.5,38.0,29.60,NW,315,0.0,2.0,97,0.00,,,0.14,weatherlink.com 1.10,2013-01-28 03:01:00,
2013-01-27 21:16:00,38.4,38.0,29.61,WNW,293,0.0,3.0,97,0.00,,,0.14,weatherlink.com 1.10,2013-01-28 03:16:00,
2013-01-27 21:32:00,38.1,37.0,29.61,WNW,300,0.0,1.0,97,0.00,,,0.14,weatherlink.com 1.10,2013-01-28 03:32:00,
2013-01-27 21:46:00,37.8,37.0,29.62,NNW,331,0.0,5.0,97,0.00,,,0.14,weatherlink.com 1.10,2013-01-28 03:46:00,
2013-01-27 22:01:00,37.7,37.0,29.62,NW,317,0.0,5.0,97,0.00,,,0.14,weatherlink.com 1.10,2013-01-28 04:01:00,
2013-01-27 22:17:00,37.5,37.0,29.61,NNW,334,3.0,5.0,97,0.00,,,0.14,weatherlink.com 1.10,2013-01-28 04:17:00,
2013-01-27 22:31:00,37.4,37.0,29.62,NW,306,0.0,8.0,97,0.00,,,0.14,weatherlink.com 1.10,2013-01-28 04:31:00,
2013-01-27 22:46:00,37.3,37.0,29.62,NNW,335,1.0,5.0,97,0.00,,,0.14,weatherlink.com 1.10,2013-01-28 04:46:00,
2013-01-27 23:01:00,37.3,37.0,29.63,NNW,327,2.0,5.0,97,0.00,,,0.14,weatherlink.com 1.10,2013-01-28 05:01:00,
2013-01-27 23:16:00,37.3,37.0,29.63,NNW,329,0.0,2.0,98,0.00,,,0.14,weatherlink.com 1.10,2013-01-28 05:16:00,
2013-01-27 23:31:00,37.4,37.0,29.64,NNW,329,0.0,3.0,98,0.00,,,0.14,weatherlink.com 1.10,2013-01-28 05:31:00,
2013-01-27 23:46:00,37.4,37.0,29.64,NNW,337,0.0,4.0,98,0.00,,,0.14,weatherlink.com 1.10,2013-01-28 05:46:00,